SBNFSBPA

Guest
Details From SBNF - Ministro Victor Konder
To SBPA - Salgado Filho
Flight Number -
Tags generated
Created
Modified
Stats Distance 230 nm / 427 km
Max Altitude 24,500 ft / 7,468 m
Waypoints 4
Social Downloads 1
Likes 0
Share VATSIM

Download

Looking for another format? Having issues loading an existing format? Contact us
Advertisement - Login to hide

Notes

Basic altitude profile: - Ascent Rate: 2500ft/min - Ascent Speed: 250kts - Cruise Altitude: 380ft - Cruise Speed: 420kts - Descent Rate: 1500ft/min - Descent Speed: 250kts Options: - Use NATs: yes - Use PACOTS: yes - Use low airways: yes - Use high airways: yes

Route

SBNF PONCA UM540 NANDU SBPA

ID Type Via Altitude Latitude Longitude Leg Dist Tot Dist Heading (true) Name
O SBNF APT - 0 ft / 0 m -26.88000˚ -48.65139˚ - 0 nm - Ministro Victor Konder
PONCA FIX - 1,900 ft / 579 m -26.91233˚ -48.74500˚ 5 nm 5 nm 249° / 249° -
NANDU FIX UM540 (AWY-HI) 24,500 ft / 7,468 m -28.55017˚ -50.00867˚ 119 nm 124 nm 214° / 215° -
O SBPA APT - 0 ft / 0 m -29.99443˚ -51.17143˚ 105 nm 230 nm 215° / 215° Salgado Filho

Altitude Profile

Advertisement - Login to hide

Weather


0- 5 10 15 20 25 30 35+ Temperature / ° C

Clouds and Precipitation
Forecast for 2018-05-23 06:00 UTC. Updated 41 minutes ago

Ground ~20,000 ft ~40,000 ft Winds

SBNF

Details ICAO SBNF (NVT)
Name Ministro Victor Konder
Region Brazil
Timezone America/Sao_Paulo (UTC-3.0)
Stats Elevation 18 ft / 5 m (AMSL)
Location -26.879998° -48.651387°
Runways 1
Magnetic Variation 19.573° W

METAR

SBNF 230320Z 25004KT 9000 SCT030 15/13 Q1020

Decode

TAF

TAF SBNF 222230Z 2300/2324 23007KT 9999 SCT025 TN14/2308Z TX20/2318Z RMK PEB

Decode

Departure Runways

ID Width Length Bearing (true) Bearing (mag) Surface Threshold Offset Overrun Length
07 148 ft / 45 m 5,580 ft / 1,701 m 54.86° 74.43° Asphalt 0 ft / 0 m 190 ft / 58 m
25 148 ft / 45 m 5,580 ft / 1,701 m 234.85° 254.42° Asphalt 0 ft / 0 m 195 ft / 59 m

SBPA

Details ICAO SBPA (POA)
Name Salgado Filho
Region Brazil
Timezone America/Sao_Paulo (UTC-3.0)
Stats Elevation 11 ft / 3 m (AMSL)
Location -29.994428° -51.171426°
Runways 1
Magnetic Variation 16.945° W

METAR

SBPA 230400Z 00000KT 9999 SCT033 BKN050 11/11 Q1022

Decode

TAF

Not found

Destination Runways

ID Width Length Bearing (true) Bearing (mag) Surface Threshold Offset Overrun Length
11 138 ft / 42 m 7,487 ft / 2,282 m 91.60° 108.54° Asphalt 0 ft / 0 m 230 ft / 70 m
29 138 ft / 42 m 7,487 ft / 2,282 m 271.59° 288.53° Asphalt 0 ft / 0 m 197 ft / 60 m

Approach Navaids

Runway Type Ident Frequency Range Bearing (true) Bearing (mag) Slope Elevation
11 Localiser IPA 110.30 MHz 18 nm / 33 km 90.92° 107.87° - 11 ft / 3 m (AMSL)
11 Glidescope IPA 110.30 MHz 10 nm / 19 km 91.60° 108.54° 3.00° 11 ft / 3 m (AMSL)

Popular Alternatives